sensor_id;sensor_type;location;lat;lon;timestamp;temperature;humidity
23120;DHT22;11729;50.836;4.330;2023-07-02T00:00:04;18.60;99.90
23120;DHT22;11729;50.836;4.330;2023-07-02T00:02:30;18.50;99.90
23120;DHT22;11729;50.836;4.330;2023-07-02T00:04:56;18.50;99.90
23120;DHT22;11729;50.836;4.330;2023-07-02T00:07:22;18.50;99.90
23120;DHT22;11729;50.836;4.330;2023-07-02T00:09:47;18.40;99.90
23120;DHT22;11729;50.836;4.330;2023-07-02T00:12:13;18.40;99.90
23120;DHT22;11729;50.836;4.330;2023-07-02T00:14:38;18.40;99.90
23120;DHT22;11729;50.836;4.330;2023-07-02T00:17:04;18.40;99.90
23120;DHT22;11729;50.836;4.330;2023-07-02T00:19:30;18.50;99.90
23120;DHT22;11729;50.836;4.330;2023-07-02T00:21:55;18.50;99.90
23120;DHT22;11729;50.836;4.330;2023-07-02T00:24:21;18.50;99.90
23120;DHT22;11729;50.836;4.330;2023-07-02T00:26:47;18.50;99.90
23120;DHT22;11729;50.836;4.330;2023-07-02T00:29:14;18.40;99.90
23120;DHT22;11729;50.836;4.330;2023-07-02T00:31:39;18.40;99.90
23120;DHT22;11729;50.836;4.330;2023-07-02T00:34:05;18.40;99.90
23120;DHT22;11729;50.836;4.330;2023-07-02T00:36:31;18.50;99.90
23120;DHT22;11729;50.836;4.330;2023-07-02T00:38:57;18.50;99.90
23120;DHT22;11729;50.836;4.330;2023-07-02T00:41:23;18.50;99.90
23120;DHT22;11729;50.836;4.330;2023-07-02T00:43:49;18.50;99.90
23120;DHT22;11729;50.836;4.330;2023-07-02T00:46:17;18.50;99.90
23120;DHT22;11729;50.836;4.330;2023-07-02T00:48:50;18.50;99.90
23120;DHT22;11729;50.836;4.330;2023-07-02T00:51:18;18.40;99.90
23120;DHT22;11729;50.836;4.330;2023-07-02T00:53:44;18.30;99.90
23120;DHT22;11729;50.836;4.330;2023-07-02T00:56:12;18.30;99.90
23120;DHT22;11729;50.836;4.330;2023-07-02T00:58:41;18.30;99.90
23120;DHT22;11729;50.836;4.330;2023-07-02T01:01:15;18.30;99.90
23120;DHT22;11729;50.836;4.330;2023-07-02T01:06:26;18.30;99.90
23120;DHT22;11729;50.836;4.330;2023-07-02T01:08:56;18.40;99.90
23120;DHT22;11729;50.836;4.330;2023-07-02T01:11:29;18.30;99.90
23120;DHT22;11729;50.836;4.330;2023-07-02T01:14:01;18.20;99.90
23120;DHT22;11729;50.836;4.330;2023-07-02T01:16:28;18.30;99.90
23120;DHT22;11729;50.836;4.330;2023-07-02T01:18:56;18.20;99.90
23120;DHT22;11729;50.836;4.330;2023-07-02T01:21:23;18.30;99.90
23120;DHT22;11729;50.836;4.330;2023-07-02T01:23:49;18.30;99.90
23120;DHT22;11729;50.836;4.330;2023-07-02T01:26:15;18.30;99.90
23120;DHT22;11729;50.836;4.330;2023-07-02T01:28:41;18.20;99.90
23120;DHT22;11729;50.836;4.330;2023-07-02T01:31:07;18.20;99.90
23120;DHT22;11729;50.836;4.330;2023-07-02T01:33:32;18.20;99.90
23120;DHT22;11729;50.836;4.330;2023-07-02T01:35:58;18.30;99.90
23120;DHT22;11729;50.836;4.330;2023-07-02T01:38:24;18.40;99.90
23120;DHT22;11729;50.836;4.330;2023-07-02T01:40:49;18.40;99.90
23120;DHT22;11729;50.836;4.330;2023-07-02T01:43:15;18.30;99.90
23120;DHT22;11729;50.836;4.330;2023-07-02T01:45:45;18.30;99.90
23120;DHT22;11729;50.836;4.330;2023-07-02T01:48:10;18.30;99.90
23120;DHT22;11729;50.836;4.330;2023-07-02T01:50:37;18.30;99.90
23120;DHT22;11729;50.836;4.330;2023-07-02T01:53:02;18.40;99.90
23120;DHT22;11729;50.836;4.330;2023-07-02T01:55:28;18.30;99.90
23120;DHT22;11729;50.836;4.330;2023-07-02T01:57:53;18.40;99.90
23120;DHT22;11729;50.836;4.330;2023-07-02T02:00:19;18.30;99.90
23120;DHT22;11729;50.836;4.330;2023-07-02T02:02:45;18.40;99.90
23120;DHT22;11729;50.836;4.330;2023-07-02T02:05:10;18.50;99.90
23120;DHT22;11729;50.836;4.330;2023-07-02T02:07:36;18.40;99.90
23120;DHT22;11729;50.836;4.330;2023-07-02T02:10:06;18.40;99.90
23120;DHT22;11729;50.836;4.330;2023-07-02T02:12:33;18.50;99.90
23120;DHT22;11729;50.836;4.330;2023-07-02T02:14:58;18.40;99.90
23120;DHT22;11729;50.836;4.330;2023-07-02T02:17:24;18.40;99.90
23120;DHT22;11729;50.836;4.330;2023-07-02T02:19:50;18.40;99.90
23120;DHT22;11729;50.836;4.330;2023-07-02T02:22:16;18.20;99.90
23120;DHT22;11729;50.836;4.330;2023-07-02T02:24:42;18.40;99.90
23120;DHT22;11729;50.836;4.330;2023-07-02T02:27:07;18.40;99.90
23120;DHT22;11729;50.836;4.330;2023-07-02T02:29:34;18.30;99.90
23120;DHT22;11729;50.836;4.330;2023-07-02T02:31:59;18.30;99.90
23120;DHT22;11729;50.836;4.330;2023-07-02T02:34:25;18.20;99.90
23120;DHT22;11729;50.836;4.330;2023-07-02T02:36:51;18.20;99.90
23120;DHT22;11729;50.836;4.330;2023-07-02T02:39:16;18.20;99.90
23120;DHT22;11729;50.836;4.330;2023-07-02T02:41:43;18.20;99.90
23120;DHT22;11729;50.836;4.330;2023-07-02T02:44:08;18.10;99.90
23120;DHT22;11729;50.836;4.330;2023-07-02T02:46:35;18.10;99.90
23120;DHT22;11729;50.836;4.330;2023-07-02T02:49:00;18.00;99.90
23120;DHT22;11729;50.836;4.330;2023-07-02T02:51:26;17.90;99.90
23120;DHT22;11729;50.836;4.330;2023-07-02T02:53:52;17.80;99.90
23120;DHT22;11729;50.836;4.330;2023-07-02T02:56:17;17.80;99.90
23120;DHT22;11729;50.836;4.330;2023-07-02T02:58:44;17.70;99.90
23120;DHT22;11729;50.836;4.330;2023-07-02T03:01:09;17.70;99.90
23120;DHT22;11729;50.836;4.330;2023-07-02T03:03:38;17.60;99.90
23120;DHT22;11729;50.836;4.330;2023-07-02T03:06:05;17.60;99.90
23120;DHT22;11729;50.836;4.330;2023-07-02T03:08:31;17.60;99.90
23120;DHT22;11729;50.836;4.330;2023-07-02T03:10:57;17.60;99.90
23120;DHT22;11729;50.836;4.330;2023-07-02T03:13:22;17.60;99.90
23120;DHT22;11729;50.836;4.330;2023-07-02T03:15:48;17.60;99.90
23120;DHT22;11729;50.836;4.330;2023-07-02T03:18:13;17.50;99.90
23120;DHT22;11729;50.836;4.330;2023-07-02T03:20:39;17.40;99.90
23120;DHT22;11729;50.836;4.330;2023-07-02T03:23:04;17.40;99.90
23120;DHT22;11729;50.836;4.330;2023-07-02T03:25:30;17.40;99.90
23120;DHT22;11729;50.836;4.330;2023-07-02T03:27:56;17.40;99.90
23120;DHT22;11729;50.836;4.330;2023-07-02T03:30:21;17.50;99.90
23120;DHT22;11729;50.836;4.330;2023-07-02T03:32:47;17.40;99.90
23120;DHT22;11729;50.836;4.330;2023-07-02T03:35:13;17.40;99.90
23120;DHT22;11729;50.836;4.330;2023-07-02T03:37:38;17.50;99.90
23120;DHT22;11729;50.836;4.330;2023-07-02T03:40:07;17.50;99.90
23120;DHT22;11729;50.836;4.330;2023-07-02T03:42:33;17.50;99.90
23120;DHT22;11729;50.836;4.330;2023-07-02T03:44:59;17.50;99.90
23120;DHT22;11729;50.836;4.330;2023-07-02T03:47:25;17.40;99.90
23120;DHT22;11729;50.836;4.330;2023-07-02T03:49:50;17.30;99.90
23120;DHT22;11729;50.836;4.330;2023-07-02T03:52:16;17.30;99.90
23120;DHT22;11729;50.836;4.330;2023-07-02T03:54:41;17.30;99.90
23120;DHT22;11729;50.836;4.330;2023-07-02T03:57:07;17.20;99.90
23120;DHT22;11729;50.836;4.330;2023-07-02T03:59:33;17.30;99.90
23120;DHT22;11729;50.836;4.330;2023-07-02T04:01:59;17.30;99.90
23120;DHT22;11729;50.836;4.330;2023-07-02T04:04:24;17.20;99.90
23120;DHT22;11729;50.836;4.330;2023-07-02T04:06:50;17.30;99.90
23120;DHT22;11729;50.836;4.330;2023-07-02T04:09:15;17.30;99.90
23120;DHT22;11729;50.836;4.330;2023-07-02T04:11:41;17.30;99.90
23120;DHT22;11729;50.836;4.330;2023-07-02T04:14:07;17.30;99.90
23120;DHT22;11729;50.836;4.330;2023-07-02T04:16:32;17.30;99.90
23120;DHT22;11729;50.836;4.330;2023-07-02T04:18:58;17.20;99.90
23120;DHT22;11729;50.836;4.330;2023-07-02T04:21:23;17.20;99.90
23120;DHT22;11729;50.836;4.330;2023-07-02T04:23:49;17.20;99.90
23120;DHT22;11729;50.836;4.330;2023-07-02T04:26:14;17.20;99.90
23120;DHT22;11729;50.836;4.330;2023-07-02T04:28:40;17.20;99.90
23120;DHT22;11729;50.836;4.330;2023-07-02T04:31:05;17.20;99.90
23120;DHT22;11729;50.836;4.330;2023-07-02T04:33:31;17.30;99.90
23120;DHT22;11729;50.836;4.330;2023-07-02T04:36:04;17.30;99.90
23120;DHT22;11729;50.836;4.330;2023-07-02T04:38:30;17.30;99.90
23120;DHT22;11729;50.836;4.330;2023-07-02T04:40:55;17.30;99.90
23120;DHT22;11729;50.836;4.330;2023-07-02T04:43:30;17.40;99.90
23120;DHT22;11729;50.836;4.330;2023-07-02T04:45:57;17.40;99.90
23120;DHT22;11729;50.836;4.330;2023-07-02T04:48:23;17.30;99.90
23120;DHT22;11729;50.836;4.330;2023-07-02T04:50:49;17.30;99.90
23120;DHT22;11729;50.836;4.330;2023-07-02T04:53:14;17.30;99.90
23120;DHT22;11729;50.836;4.330;2023-07-02T04:55:40;17.40;99.90
23120;DHT22;11729;50.836;4.330;2023-07-02T04:58:06;17.50;99.90
23120;DHT22;11729;50.836;4.330;2023-07-02T05:00:31;17.60;99.90
23120;DHT22;11729;50.836;4.330;2023-07-02T05:02:57;17.60;99.90
23120;DHT22;11729;50.836;4.330;2023-07-02T05:05:23;17.60;99.90
23120;DHT22;11729;50.836;4.330;2023-07-02T05:07:48;17.70;99.90
23120;DHT22;11729;50.836;4.330;2023-07-02T05:10:14;17.80;99.90
23120;DHT22;11729;50.836;4.330;2023-07-02T05:12:40;18.00;99.90
23120;DHT22;11729;50.836;4.330;2023-07-02T05:15:06;18.10;99.90
23120;DHT22;11729;50.836;4.330;2023-07-02T05:17:31;18.20;99.90
23120;DHT22;11729;50.836;4.330;2023-07-02T05:20:03;18.20;99.90
23120;DHT22;11729;50.836;4.330;2023-07-02T05:22:30;18.40;99.90
23120;DHT22;11729;50.836;4.330;2023-07-02T05:24:55;18.30;99.90
23120;DHT22;11729;50.836;4.330;2023-07-02T05:27:21;18.40;99.90
23120;DHT22;11729;50.836;4.330;2023-07-02T05:29:46;18.50;99.90
23120;DHT22;11729;50.836;4.330;2023-07-02T05:32:12;18.70;99.90
23120;DHT22;11729;50.836;4.330;2023-07-02T05:34:37;18.80;99.90
23120;DHT22;11729;50.836;4.330;2023-07-02T05:37:03;18.90;99.90
23120;DHT22;11729;50.836;4.330;2023-07-02T05:39:29;19.20;99.90
23120;DHT22;11729;50.836;4.330;2023-07-02T05:41:56;19.30;99.90
23120;DHT22;11729;50.836;4.330;2023-07-02T05:44:22;19.40;99.90
23120;DHT22;11729;50.836;4.330;2023-07-02T05:46:47;19.50;99.90
23120;DHT22;11729;50.836;4.330;2023-07-02T05:49:13;19.60;99.90
23120;DHT22;11729;50.836;4.330;2023-07-02T05:51:38;19.90;99.90
23120;DHT22;11729;50.836;4.330;2023-07-02T05:54:04;20.20;99.90
23120;DHT22;11729;50.836;4.330;2023-07-02T05:56:29;20.70;99.90
23120;DHT22;11729;50.836;4.330;2023-07-02T05:58:55;21.00;99.90
23120;DHT22;11729;50.836;4.330;2023-07-02T06:01:22;21.30;99.90
23120;DHT22;11729;50.836;4.330;2023-07-02T06:03:49;21.30;99.90
23120;DHT22;11729;50.836;4.330;2023-07-02T06:06:15;21.50;99.90
23120;DHT22;11729;50.836;4.330;2023-07-02T06:08:41;22.20;99.90
23120;DHT22;11729;50.836;4.330;2023-07-02T06:11:08;23.20;99.90
23120;DHT22;11729;50.836;4.330;2023-07-02T06:13:34;23.70;99.90
23120;DHT22;11729;50.836;4.330;2023-07-02T06:16:00;23.80;99.90
23120;DHT22;11729;50.836;4.330;2023-07-02T06:18:25;23.20;99.90
23120;DHT22;11729;50.836;4.330;2023-07-02T06:20:51;22.80;99.90
23120;DHT22;11729;50.836;4.330;2023-07-02T06:23:16;22.80;99.90
23120;DHT22;11729;50.836;4.330;2023-07-02T06:25:42;22.70;99.90
23120;DHT22;11729;50.836;4.330;2023-07-02T06:28:09;22.80;99.90
23120;DHT22;11729;50.836;4.330;2023-07-02T06:30:36;23.10;99.90
23120;DHT22;11729;50.836;4.330;2023-07-02T06:33:01;23.40;99.90
23120;DHT22;11729;50.836;4.330;2023-07-02T06:35:27;23.50;99.90
23120;DHT22;11729;50.836;4.330;2023-07-02T06:37:53;24.50;99.90
23120;DHT22;11729;50.836;4.330;2023-07-02T06:40:19;25.50;99.90
23120;DHT22;11729;50.836;4.330;2023-07-02T06:42:45;26.20;99.90
23120;DHT22;11729;50.836;4.330;2023-07-02T06:45:10;26.60;99.90
23120;DHT22;11729;50.836;4.330;2023-07-02T06:47:36;26.80;99.90
23120;DHT22;11729;50.836;4.330;2023-07-02T06:50:01;27.00;99.90
23120;DHT22;11729;50.836;4.330;2023-07-02T06:52:27;26.90;99.90
23120;DHT22;11729;50.836;4.330;2023-07-02T06:54:53;26.70;99.90
23120;DHT22;11729;50.836;4.330;2023-07-02T06:57:18;26.30;99.90
23120;DHT22;11729;50.836;4.330;2023-07-02T06:59:45;27.00;99.90
23120;DHT22;11729;50.836;4.330;2023-07-02T07:02:10;26.90;99.90
23120;DHT22;11729;50.836;4.330;2023-07-02T07:04:36;26.40;99.90
23120;DHT22;11729;50.836;4.330;2023-07-02T07:07:02;26.20;99.90
23120;DHT22;11729;50.836;4.330;2023-07-02T07:09:30;25.90;99.90
23120;DHT22;11729;50.836;4.330;2023-07-02T07:11:56;25.90;99.90
23120;DHT22;11729;50.836;4.330;2023-07-02T07:14:21;25.60;99.90
23120;DHT22;11729;50.836;4.330;2023-07-02T07:16:47;25.40;99.90
23120;DHT22;11729;50.836;4.330;2023-07-02T07:19:13;25.30;99.90
23120;DHT22;11729;50.836;4.330;2023-07-02T07:21:38;25.10;99.90
23120;DHT22;11729;50.836;4.330;2023-07-02T07:24:05;25.20;99.90
23120;DHT22;11729;50.836;4.330;2023-07-02T07:26:31;25.10;99.90
23120;DHT22;11729;50.836;4.330;2023-07-02T07:28:56;25.00;99.90
23120;DHT22;11729;50.836;4.330;2023-07-02T07:31:23;24.80;99.90
23120;DHT22;11729;50.836;4.330;2023-07-02T07:33:49;24.90;99.90
23120;DHT22;11729;50.836;4.330;2023-07-02T07:36:15;24.80;99.90
23120;DHT22;11729;50.836;4.330;2023-07-02T07:38:42;24.60;99.90
23120;DHT22;11729;50.836;4.330;2023-07-02T07:41:08;24.50;99.90
23120;DHT22;11729;50.836;4.330;2023-07-02T07:43:34;24.50;99.90
23120;DHT22;11729;50.836;4.330;2023-07-02T07:45:59;24.50;99.90
23120;DHT22;11729;50.836;4.330;2023-07-02T07:48:25;24.60;99.90
23120;DHT22;11729;50.836;4.330;2023-07-02T07:50:50;24.80;99.90
23120;DHT22;11729;50.836;4.330;2023-07-02T07:53:16;25.40;99.90
23120;DHT22;11729;50.836;4.330;2023-07-02T07:55:42;25.70;99.90
23120;DHT22;11729;50.836;4.330;2023-07-02T07:58:07;25.70;99.90
23120;DHT22;11729;50.836;4.330;2023-07-02T08:00:33;25.80;99.90
23120;DHT22;11729;50.836;4.330;2023-07-02T08:02:58;25.50;99.90
23120;DHT22;11729;50.836;4.330;2023-07-02T08:05:26;25.70;99.90
23120;DHT22;11729;50.836;4.330;2023-07-02T08:07:51;26.10;99.60
23120;DHT22;11729;50.836;4.330;2023-07-02T08:10:19;26.20;99.60
23120;DHT22;11729;50.836;4.330;2023-07-02T08:12:44;26.20;99.90
23120;DHT22;11729;50.836;4.330;2023-07-02T08:15:11;26.40;99.90
23120;DHT22;11729;50.836;4.330;2023-07-02T08:17:37;26.60;98.80
23120;DHT22;11729;50.836;4.330;2023-07-02T08:20:03;26.80;97.30
23120;DHT22;11729;50.836;4.330;2023-07-02T08:22:37;27.50;97.40
23120;DHT22;11729;50.836;4.330;2023-07-02T08:25:03;28.50;95.20
23120;DHT22;11729;50.836;4.330;2023-07-02T08:27:28;29.20;91.70
23120;DHT22;11729;50.836;4.330;2023-07-02T08:29:54;29.50;88.50
23120;DHT22;11729;50.836;4.330;2023-07-02T08:32:20;29.60;88.30
23120;DHT22;11729;50.836;4.330;2023-07-02T08:34:46;29.70;89.70
23120;DHT22;11729;50.836;4.330;2023-07-02T08:37:12;30.20;87.60
23120;DHT22;11729;50.836;4.330;2023-07-02T08:39:38;30.20;83.90
23120;DHT22;11729;50.836;4.330;2023-07-02T08:42:05;30.00;85.30
23120;DHT22;11729;50.836;4.330;2023-07-02T08:44:31;30.40;84.80
23120;DHT22;11729;50.836;4.330;2023-07-02T08:46:56;31.00;84.60
23120;DHT22;11729;50.836;4.330;2023-07-02T08:49:22;30.80;79.90
23120;DHT22;11729;50.836;4.330;2023-07-02T08:51:48;30.20;81.20
23120;DHT22;11729;50.836;4.330;2023-07-02T08:54:14;29.50;81.70
23120;DHT22;11729;50.836;4.330;2023-07-02T08:56:42;28.80;82.60
23120;DHT22;11729;50.836;4.330;2023-07-02T08:59:08;28.50;86.60
23120;DHT22;11729;50.836;4.330;2023-07-02T09:01:48;28.70;82.80
23120;DHT22;11729;50.836;4.330;2023-07-02T09:04:21;28.50;82.70
23120;DHT22;11729;50.836;4.330;2023-07-02T09:06:49;28.90;85.30
23120;DHT22;11729;50.836;4.330;2023-07-02T09:09:15;29.30;83.80
23120;DHT22;11729;50.836;4.330;2023-07-02T09:11:47;30.00;82.50
23120;DHT22;11729;50.836;4.330;2023-07-02T09:14:24;30.80;81.30
23120;DHT22;11729;50.836;4.330;2023-07-02T09:19:29;30.00;76.40
23120;DHT22;11729;50.836;4.330;2023-07-02T09:21:58;29.50;78.50
23120;DHT22;11729;50.836;4.330;2023-07-02T09:24:30;28.70;80.30
23120;DHT22;11729;50.836;4.330;2023-07-02T09:27:00;27.90;84.00
23120;DHT22;11729;50.836;4.330;2023-07-02T09:29:31;27.60;87.30
23120;DHT22;11729;50.836;4.330;2023-07-02T09:32:06;27.80;86.20
23120;DHT22;11729;50.836;4.330;2023-07-02T09:34:36;28.20;82.30
23120;DHT22;11729;50.836;4.330;2023-07-02T09:37:03;29.20;79.80
23120;DHT22;11729;50.836;4.330;2023-07-02T09:39:34;29.70;76.20
23120;DHT22;11729;50.836;4.330;2023-07-02T09:42:01;30.10;75.40
23120;DHT22;11729;50.836;4.330;2023-07-02T09:44:32;29.50;72.80
23120;DHT22;11729;50.836;4.330;2023-07-02T09:47:08;28.50;75.20
23120;DHT22;11729;50.836;4.330;2023-07-02T09:49:36;27.80;78.60
23120;DHT22;11729;50.836;4.330;2023-07-02T09:52:11;27.50;80.60
23120;DHT22;11729;50.836;4.330;2023-07-02T09:54:38;27.20;81.50
23120;DHT22;11729;50.836;4.330;2023-07-02T09:57:05;26.90;83.30
23120;DHT22;11729;50.836;4.330;2023-07-02T09:59:32;26.50;89.40
23120;DHT22;11729;50.836;4.330;2023-07-02T10:01:58;26.70;87.60
23120;DHT22;11729;50.836;4.330;2023-07-02T10:04:24;27.10;83.60
23120;DHT22;11729;50.836;4.330;2023-07-02T10:06:52;27.50;83.60
23120;DHT22;11729;50.836;4.330;2023-07-02T10:09:18;27.50;80.50
23120;DHT22;11729;50.836;4.330;2023-07-02T10:11:44;27.80;81.90
23120;DHT22;11729;50.836;4.330;2023-07-02T10:14:10;28.20;77.50
23120;DHT22;11729;50.836;4.330;2023-07-02T10:17:08;28.50;76.30
23120;DHT22;11729;50.836;4.330;2023-07-02T10:19:33;29.80;76.50
23120;DHT22;11729;50.836;4.330;2023-07-02T10:22:03;30.30;69.90
23120;DHT22;11729;50.836;4.330;2023-07-02T10:24:29;29.40;70.30
23120;DHT22;11729;50.836;4.330;2023-07-02T10:26:57;29.00;71.40
23120;DHT22;11729;50.836;4.330;2023-07-02T10:29:23;28.00;72.20
23120;DHT22;11729;50.836;4.330;2023-07-02T10:31:51;27.80;74.50
23120;DHT22;11729;50.836;4.330;2023-07-02T10:34:31;27.00;74.30
23120;DHT22;11729;50.836;4.330;2023-07-02T10:36:57;26.90;75.50
23120;DHT22;11729;50.836;4.330;2023-07-02T10:39:23;26.50;77.80
23120;DHT22;11729;50.836;4.330;2023-07-02T10:41:49;26.10;78.30
23120;DHT22;11729;50.836;4.330;2023-07-02T10:44:15;26.00;80.70
23120;DHT22;11729;50.836;4.330;2023-07-02T10:46:48;26.60;81.60
23120;DHT22;11729;50.836;4.330;2023-07-02T10:49:16;27.50;77.80
23120;DHT22;11729;50.836;4.330;2023-07-02T10:51:42;28.00;75.10
23120;DHT22;11729;50.836;4.330;2023-07-02T10:54:08;28.70;74.30
23120;DHT22;11729;50.836;4.330;2023-07-02T10:56:34;29.70;71.50
23120;DHT22;11729;50.836;4.330;2023-07-02T10:59:00;30.30;67.70
23120;DHT22;11729;50.836;4.330;2023-07-02T11:01:30;30.50;67.00
23120;DHT22;11729;50.836;4.330;2023-07-02T11:04:03;30.70;65.70
23120;DHT22;11729;50.836;4.330;2023-07-02T11:06:31;31.00;65.20
23120;DHT22;11729;50.836;4.330;2023-07-02T11:09:00;31.20;62.90
23120;DHT22;11729;50.836;4.330;2023-07-02T11:11:26;30.60;61.40
23120;DHT22;11729;50.836;4.330;2023-07-02T11:13:52;29.90;62.70
23120;DHT22;11729;50.836;4.330;2023-07-02T11:16:25;29.00;63.20
23120;DHT22;11729;50.836;4.330;2023-07-02T11:19:15;28.10;65.30
23120;DHT22;11729;50.836;4.330;2023-07-02T11:21:53;27.60;67.30
23120;DHT22;11729;50.836;4.330;2023-07-02T11:24:32;27.70;69.30
23120;DHT22;11729;50.836;4.330;2023-07-02T11:27:00;27.90;68.50
23120;DHT22;11729;50.836;4.330;2023-07-02T11:29:26;27.70;69.80
23120;DHT22;11729;50.836;4.330;2023-07-02T11:31:52;27.80;69.30
23120;DHT22;11729;50.836;4.330;2023-07-02T11:34:20;28.00;68.70
23120;DHT22;11729;50.836;4.330;2023-07-02T11:36:46;28.80;71.50
23120;DHT22;11729;50.836;4.330;2023-07-02T11:39:12;29.50;67.10
23120;DHT22;11729;50.836;4.330;2023-07-02T11:41:40;29.90;63.00
23120;DHT22;11729;50.836;4.330;2023-07-02T11:44:06;29.80;62.90
23120;DHT22;11729;50.836;4.330;2023-07-02T11:46:32;30.00;64.10
23120;DHT22;11729;50.836;4.330;2023-07-02T11:49:00;29.60;63.10
23120;DHT22;11729;50.836;4.330;2023-07-02T11:51:26;28.80;65.20
23120;DHT22;11729;50.836;4.330;2023-07-02T11:53:52;28.60;67.70
23120;DHT22;11729;50.836;4.330;2023-07-02T11:56:17;28.80;66.50
23120;DHT22;11729;50.836;4.330;2023-07-02T11:58:44;29.40;67.40
23120;DHT22;11729;50.836;4.330;2023-07-02T12:01:09;30.40;64.60
23120;DHT22;11729;50.836;4.330;2023-07-02T12:03:35;30.90;62.00
23120;DHT22;11729;50.836;4.330;2023-07-02T12:06:01;31.90;62.20
23120;DHT22;11729;50.836;4.330;2023-07-02T12:08:27;32.30;57.20
23120;DHT22;11729;50.836;4.330;2023-07-02T12:10:53;32.90;57.60
23120;DHT22;11729;50.836;4.330;2023-07-02T12:13:19;33.20;54.40
23120;DHT22;11729;50.836;4.330;2023-07-02T12:15:47;32.80;53.20
23120;DHT22;11729;50.836;4.330;2023-07-02T12:18:13;32.60;53.30
23120;DHT22;11729;50.836;4.330;2023-07-02T12:20:41;32.10;54.60
23120;DHT22;11729;50.836;4.330;2023-07-02T12:23:07;31.60;54.90
23120;DHT22;11729;50.836;4.330;2023-07-02T12:25:33;32.30;54.40
23120;DHT22;11729;50.836;4.330;2023-07-02T12:28:01;33.10;56.70
23120;DHT22;11729;50.836;4.330;2023-07-02T12:30:27;34.00;54.50
23120;DHT22;11729;50.836;4.330;2023-07-02T12:32:53;34.40;50.70
23120;DHT22;11729;50.836;4.330;2023-07-02T12:35:18;34.50;52.60
23120;DHT22;11729;50.836;4.330;2023-07-02T12:37:49;35.40;52.20
23120;DHT22;11729;50.836;4.330;2023-07-02T12:40:15;34.00;48.40
23120;DHT22;11729;50.836;4.330;2023-07-02T12:42:42;33.40;50.90
23120;DHT22;11729;50.836;4.330;2023-07-02T12:45:09;32.10;53.30
23120;DHT22;11729;50.836;4.330;2023-07-02T12:47:35;32.40;56.40
23120;DHT22;11729;50.836;4.330;2023-07-02T12:50:01;33.00;53.00
23120;DHT22;11729;50.836;4.330;2023-07-02T12:52:27;33.40;52.70
23120;DHT22;11729;50.836;4.330;2023-07-02T12:54:53;33.80;51.10
23120;DHT22;11729;50.836;4.330;2023-07-02T12:57:18;33.60;51.90
23120;DHT22;11729;50.836;4.330;2023-07-02T12:59:44;32.80;52.20
23120;DHT22;11729;50.836;4.330;2023-07-02T13:02:10;32.80;52.30
23120;DHT22;11729;50.836;4.330;2023-07-02T13:04:36;33.50;51.80
23120;DHT22;11729;50.836;4.330;2023-07-02T13:07:02;34.00;49.20
23120;DHT22;11729;50.836;4.330;2023-07-02T13:09:28;33.80;50.30
23120;DHT22;11729;50.836;4.330;2023-07-02T13:11:53;32.90;51.20
23120;DHT22;11729;50.836;4.330;2023-07-02T13:14:19;32.10;50.90
23120;DHT22;11729;50.836;4.330;2023-07-02T13:16:45;32.20;53.00
23120;DHT22;11729;50.836;4.330;2023-07-02T13:19:10;32.10;52.40
23120;DHT22;11729;50.836;4.330;2023-07-02T13:21:36;31.60;51.20
23120;DHT22;11729;50.836;4.330;2023-07-02T13:24:03;31.10;53.40
23120;DHT22;11729;50.836;4.330;2023-07-02T13:26:29;31.10;54.90
23120;DHT22;11729;50.836;4.330;2023-07-02T13:28:54;31.70;53.40
23120;DHT22;11729;50.836;4.330;2023-07-02T13:31:20;32.60;54.20
23120;DHT22;11729;50.836;4.330;2023-07-02T13:33:46;32.90;51.70
23120;DHT22;11729;50.836;4.330;2023-07-02T13:36:12;31.80;51.10
23120;DHT22;11729;50.836;4.330;2023-07-02T13:38:38;31.40;53.50
23120;DHT22;11729;50.836;4.330;2023-07-02T13:41:04;30.00;54.60
23120;DHT22;11729;50.836;4.330;2023-07-02T13:43:30;29.60;56.10
23120;DHT22;11729;50.836;4.330;2023-07-02T13:45:55;29.30;57.00
23120;DHT22;11729;50.836;4.330;2023-07-02T13:48:21;28.80;57.80
23120;DHT22;11729;50.836;4.330;2023-07-02T13:50:47;28.80;58.00
23120;DHT22;11729;50.836;4.330;2023-07-02T13:53:12;28.50;57.40
23120;DHT22;11729;50.836;4.330;2023-07-02T13:55:38;28.40;58.80
23120;DHT22;11729;50.836;4.330;2023-07-02T13:58:03;28.40;60.30
23120;DHT22;11729;50.836;4.330;2023-07-02T14:00:29;28.10;59.90
23120;DHT22;11729;50.836;4.330;2023-07-02T14:02:55;28.30;61.00
23120;DHT22;11729;50.836;4.330;2023-07-02T14:05:21;28.30;59.50
23120;DHT22;11729;50.836;4.330;2023-07-02T14:07:47;27.90;60.00
23120;DHT22;11729;50.836;4.330;2023-07-02T14:10:13;27.20;62.20
23120;DHT22;11729;50.836;4.330;2023-07-02T14:12:41;27.00;63.40
23120;DHT22;11729;50.836;4.330;2023-07-02T14:15:07;27.20;63.30
23120;DHT22;11729;50.836;4.330;2023-07-02T14:17:33;27.30;62.70
23120;DHT22;11729;50.836;4.330;2023-07-02T14:19:59;27.30;62.60
23120;DHT22;11729;50.836;4.330;2023-07-02T14:22:24;27.00;63.00
23120;DHT22;11729;50.836;4.330;2023-07-02T14:24:50;26.80;63.50
23120;DHT22;11729;50.836;4.330;2023-07-02T14:27:16;26.90;64.10
23120;DHT22;11729;50.836;4.330;2023-07-02T14:29:42;26.80;63.70
23120;DHT22;11729;50.836;4.330;2023-07-02T14:32:07;26.80;63.60
23120;DHT22;11729;50.836;4.330;2023-07-02T14:34:33;26.60;63.80
23120;DHT22;11729;50.836;4.330;2023-07-02T14:36:59;26.40;64.50
23120;DHT22;11729;50.836;4.330;2023-07-02T14:39:25;26.20;66.10
23120;DHT22;11729;50.836;4.330;2023-07-02T14:41:51;26.00;66.40
23120;DHT22;11729;50.836;4.330;2023-07-02T14:44:17;26.10;65.40
23120;DHT22;11729;50.836;4.330;2023-07-02T14:46:43;26.30;65.20
23120;DHT22;11729;50.836;4.330;2023-07-02T14:49:09;26.50;63.80
23120;DHT22;11729;50.836;4.330;2023-07-02T14:51:35;26.20;64.70
23120;DHT22;11729;50.836;4.330;2023-07-02T14:54:00;26.00;65.20
23120;DHT22;11729;50.836;4.330;2023-07-02T14:56:29;25.80;63.40
23120;DHT22;11729;50.836;4.330;2023-07-02T14:58:55;25.70;65.30
23120;DHT22;11729;50.836;4.330;2023-07-02T15:01:21;25.80;66.50
23120;DHT22;11729;50.836;4.330;2023-07-02T15:03:46;25.90;66.90
23120;DHT22;11729;50.836;4.330;2023-07-02T15:06:14;26.20;66.50
23120;DHT22;11729;50.836;4.330;2023-07-02T15:08:41;26.40;65.20
23120;DHT22;11729;50.836;4.330;2023-07-02T15:11:09;26.20;65.00
23120;DHT22;11729;50.836;4.330;2023-07-02T15:13:35;26.00;66.10
23120;DHT22;11729;50.836;4.330;2023-07-02T15:16:01;25.90;65.30
23120;DHT22;11729;50.836;4.330;2023-07-02T15:18:27;25.60;67.10
23120;DHT22;11729;50.836;4.330;2023-07-02T15:20:53;25.30;66.50
23120;DHT22;11729;50.836;4.330;2023-07-02T15:23:23;25.20;67.60
23120;DHT22;11729;50.836;4.330;2023-07-02T15:26:00;25.40;67.30
23120;DHT22;11729;50.836;4.330;2023-07-02T15:28:26;25.60;70.10
23120;DHT22;11729;50.836;4.330;2023-07-02T15:30:59;25.70;66.40